Terminal Aerodrome Forecast
Issued by NWS St Louis, MO

Home | Current Version | Previous Version | Text Only | Print | Product List | Glossary On
Versions: 1 2 3 4 5 6 7 8 9 10 11 12 13 14 15 16 17 18 19 20 21 22
000
FTUS43 KLSX 180600 AAA
TAFCOU
TAF AMD
KCOU 180632Z 1807/1906 VRB03KT 4SM BR OVC050
     FM181000 VRB03KT 2SM BR BKN050
     FM181500 19006KT P6SM SCT030 SCT250=

USA.gov is the U.S. government's official web portal to all federal, state and local government web resources and services.